createdAt,value
2023-04-13T00:01:23.509Z,4.90
2023-04-13T00:04:45.261Z,4.55
2023-04-13T00:08:09.267Z,5.75
2023-04-13T00:11:32.070Z,6.18
2023-04-13T00:14:53.934Z,4.38
2023-04-13T00:18:15.764Z,4.85
2023-04-13T00:21:37.999Z,7.20
2023-04-13T00:25:01.451Z,5.90
2023-04-13T00:28:24.342Z,4.13
2023-04-13T00:31:47.298Z,6.13
2023-04-13T00:35:10.733Z,6.10
2023-04-13T00:38:33.171Z,7.00
2023-04-13T00:41:56.074Z,6.18
2023-04-13T00:45:19.181Z,4.90
2023-04-13T00:48:41.248Z,6.82
2023-04-13T00:52:03.855Z,4.07
2023-04-13T00:55:25.773Z,4.90
2023-04-13T00:58:48.610Z,4.78
2023-04-13T01:02:10.419Z,8.70
2023-04-13T01:05:51.797Z,6.38
2023-04-13T01:09:19.720Z,7.97
2023-04-13T01:12:52.703Z,4.70
2023-04-13T01:16:21.301Z,7.18
2023-04-13T01:19:52.214Z,6.10
2023-04-13T01:23:28.482Z,5.93
2023-04-13T01:27:12.323Z,7.07
2023-04-13T01:30:37.587Z,6.78
2023-04-13T01:34:00.101Z,6.40
2023-04-13T01:37:25.790Z,9.73
2023-04-13T01:40:50.762Z,5.20
2023-04-13T01:44:14.116Z,8.15
2023-04-13T01:47:40.662Z,7.07
2023-04-13T01:51:24.330Z,10.32
2023-04-13T01:54:52.166Z,6.80
2023-04-13T01:58:15.832Z,10.40
2023-04-13T02:01:43.535Z,7.50
2023-04-13T02:05:09.631Z,7.70
2023-04-13T02:08:33.623Z,9.27
2023-04-13T02:11:55.377Z,8.30
2023-04-13T02:15:18.275Z,9.83
2023-04-13T02:18:41.170Z,8.98
2023-04-13T02:22:04.091Z,8.50
2023-04-13T02:25:25.985Z,10.23
2023-04-13T02:28:48.153Z,12.00
2023-04-13T02:32:10.554Z,11.35
2023-04-13T02:35:34.444Z,11.48
2023-04-13T02:38:58.478Z,11.83
2023-04-13T02:42:24.187Z,11.53
2023-04-13T02:45:46.289Z,14.60
2023-04-13T02:49:10.760Z,10.77
2023-04-13T02:52:39.166Z,12.13
2023-04-13T02:56:03.052Z,14.07
2023-04-13T02:59:25.642Z,11.23
2023-04-13T03:02:47.699Z,11.23
2023-04-13T03:06:12.298Z,10.53
2023-04-13T03:09:40.946Z,8.93
2023-04-13T03:13:05.886Z,12.40
2023-04-13T03:16:28.326Z,10.60
2023-04-13T03:19:52.092Z,9.00
2023-04-13T03:23:16.395Z,9.23
2023-04-13T03:26:39.339Z,8.87
2023-04-13T03:30:09.039Z,9.60
2023-04-13T03:33:40.503Z,10.07
2023-04-13T03:37:02.867Z,7.93
2023-04-13T03:40:25.110Z,18.37
2023-04-13T03:43:48.071Z,9.97
2023-04-13T03:47:11.475Z,9.63
2023-04-13T03:50:33.071Z,9.63
2023-04-13T03:53:55.638Z,10.77
2023-04-13T03:57:21.416Z,11.20
2023-04-13T04:00:44.451Z,10.63
2023-04-13T04:04:16.278Z,9.83
2023-04-13T04:07:38.561Z,10.77
2023-04-13T04:11:00.929Z,10.37
2023-04-13T04:14:24.377Z,10.47
2023-04-13T04:17:53.424Z,10.60
2023-04-13T04:21:21.653Z,10.10
2023-04-13T04:24:43.447Z,11.50
2023-04-13T04:28:06.340Z,10.90
2023-04-13T04:31:27.881Z,10.10
2023-04-13T04:34:53.080Z,10.40
2023-04-13T04:38:18.611Z,10.60
2023-04-13T04:41:40.578Z,11.50
2023-04-13T04:45:04.629Z,11.80
2023-04-13T04:48:31.706Z,12.10
2023-04-13T04:51:57.491Z,10.90
2023-04-13T04:55:21.300Z,10.93
2023-04-13T04:58:43.594Z,10.90
2023-04-13T05:02:06.092Z,10.73
2023-04-13T05:05:27.815Z,10.17
2023-04-13T05:08:49.794Z,12.00
2023-04-13T05:12:12.851Z,11.80
2023-04-13T05:15:38.451Z,11.53
2023-04-13T05:19:01.220Z,9.13
2023-04-13T05:22:42.154Z,11.07
2023-04-13T05:26:04.196Z,8.73
2023-04-13T05:29:27.441Z,9.73
2023-04-13T05:32:49.171Z,10.63
2023-04-13T05:36:11.562Z,9.50
2023-04-13T05:39:36.312Z,14.40
2023-04-13T05:42:57.915Z,12.17
2023-04-13T05:46:26.146Z,13.97
2023-04-13T05:49:48.318Z,15.30
2023-04-13T05:53:14.049Z,10.53
2023-04-13T05:56:42.959Z,9.00
2023-04-13T06:00:08.041Z,8.23
2023-04-13T06:03:43.492Z,9.43
2023-04-13T06:07:05.886Z,9.50
2023-04-13T06:10:28.325Z,12.27
2023-04-13T06:13:50.096Z,9.67
2023-04-13T06:17:11.548Z,9.97
2023-04-13T06:20:36.026Z,11.67
2023-04-13T06:23:58.020Z,11.33
2023-04-13T06:27:23.809Z,8.30
2023-04-13T06:30:45.820Z,10.10
2023-04-13T06:34:09.699Z,8.13
2023-04-13T06:37:34.139Z,7.47
2023-04-13T06:41:02.332Z,8.17
2023-04-13T06:44:27.060Z,7.93
2023-04-13T06:47:54.568Z,6.63
2023-04-13T06:51:16.180Z,7.00
2023-04-13T06:54:39.562Z,6.80
2023-04-13T06:58:14.353Z,7.20
2023-04-13T07:01:36.823Z,6.40
2023-04-13T07:04:59.568Z,7.63
2023-04-13T07:08:22.949Z,9.10
2023-04-13T07:11:46.254Z,10.20
2023-04-13T07:15:10.731Z,9.27
2023-04-13T07:18:33.475Z,13.03
2023-04-13T07:21:55.012Z,9.63
2023-04-13T07:25:17.059Z,10.73
2023-04-13T07:28:41.631Z,11.07
2023-04-13T07:32:08.489Z,9.43
2023-04-13T07:35:32.074Z,11.40
2023-04-13T07:38:55.342Z,10.67
2023-04-13T07:42:17.516Z,10.03
2023-04-13T07:45:45.972Z,8.53
2023-04-13T07:49:07.850Z,10.53
2023-04-13T07:52:31.588Z,8.40
2023-04-13T07:55:53.561Z,7.97
2023-04-13T07:59:15.884Z,11.20
2023-04-13T08:02:41.665Z,8.85
2023-04-13T08:06:08.424Z,10.50
2023-04-13T08:09:32.926Z,8.45
2023-04-13T08:12:54.687Z,6.55
2023-04-13T08:16:17.005Z,7.43
2023-04-13T08:19:40.586Z,6.80
2023-04-13T08:23:05.679Z,7.13
2023-04-13T08:26:27.716Z,8.87
2023-04-13T08:29:56.657Z,10.83
2023-04-13T08:33:18.577Z,7.40
2023-04-13T08:36:41.739Z,7.20
2023-04-13T08:40:07.742Z,8.15
2023-04-13T08:43:30.788Z,6.13
2023-04-13T08:46:53.558Z,8.60
2023-04-13T08:50:23.904Z,6.32
2023-04-13T08:53:49.896Z,5.55
2023-04-13T08:57:17.914Z,4.28
2023-04-13T09:00:41.736Z,4.40
2023-04-13T09:04:10.604Z,4.28
2023-04-13T09:07:37.097Z,5.38
2023-04-13T09:11:06.745Z,5.80
2023-04-13T09:14:29.222Z,5.35
2023-04-13T09:17:50.849Z,6.33
2023-04-13T09:21:14.905Z,4.55
2023-04-13T09:24:40.986Z,3.22
2023-04-13T09:28:08.619Z,6.18
2023-04-13T09:31:33.829Z,6.78
2023-04-13T09:35:00.012Z,5.72
2023-04-13T09:38:32.790Z,6.05
2023-04-13T09:41:54.923Z,4.97
2023-04-13T09:45:17.861Z,5.90
2023-04-13T09:48:40.124Z,4.03
2023-04-13T09:52:01.995Z,5.35
2023-04-13T09:55:24.350Z,5.97
2023-04-13T09:58:48.264Z,3.35
2023-04-13T10:02:13.213Z,7.03
2023-04-13T10:05:47.354Z,4.03
2023-04-13T10:09:21.223Z,2.90
2023-04-13T10:12:47.460Z,3.05
2023-04-13T10:16:33.882Z,2.78
2023-04-13T10:20:07.748Z,3.28
2023-04-13T10:23:32.082Z,2.42
2023-04-13T10:26:55.241Z,5.65
2023-04-13T10:30:18.713Z,3.75
2023-04-13T10:33:49.512Z,4.07
2023-04-13T10:37:21.539Z,5.07
2023-04-13T10:40:44.752Z,9.18
2023-04-13T10:44:08.026Z,6.88
2023-04-13T10:47:38.044Z,3.90
2023-04-13T10:51:00.480Z,4.07
2023-04-13T10:54:27.017Z,2.08
2023-04-13T10:57:48.619Z,4.82
2023-04-13T11:01:11.777Z,3.67
2023-04-13T11:04:34.138Z,3.05
2023-04-13T11:07:56.496Z,7.00
2023-04-13T11:11:27.148Z,4.13
2023-04-13T11:14:49.746Z,3.17
2023-04-13T11:18:11.858Z,7.35
2023-04-13T11:21:35.468Z,3.42
2023-04-13T11:25:08.985Z,3.35
2023-04-13T11:28:40.409Z,4.13
2023-04-13T11:32:02.162Z,4.13
2023-04-13T11:35:24.688Z,3.70
2023-04-13T11:38:49.776Z,4.07
2023-04-13T11:42:11.441Z,4.90
2023-04-13T11:45:35.675Z,4.82
2023-04-13T11:48:58.157Z,2.33
2023-04-13T11:52:20.743Z,2.10
2023-04-13T11:55:52.776Z,4.03
2023-04-13T11:59:15.982Z,3.33
2023-04-13T12:02:54.659Z,3.38
2023-04-13T12:06:24.296Z,5.53
2023-04-13T12:17:01.415Z,4.72
2023-04-13T12:20:20.439Z,5.20
2023-04-13T12:23:53.337Z,2.50
2023-04-13T12:27:18.947Z,5.80
2023-04-13T12:30:40.865Z,2.03
2023-04-13T12:34:02.228Z,3.42
2023-04-13T12:37:25.360Z,3.33
2023-04-13T12:40:46.960Z,2.35
2023-04-13T12:44:10.487Z,2.67
2023-04-13T12:47:32.190Z,2.05
2023-04-13T12:50:54.728Z,3.22
2023-04-13T12:54:18.067Z,2.83
2023-04-13T12:57:40.506Z,3.42
2023-04-13T13:01:02.877Z,4.22
2023-04-13T13:04:25.048Z,2.70
2023-04-13T13:07:46.628Z,5.32
2023-04-13T13:11:10.022Z,6.10
2023-04-13T13:14:32.404Z,3.25
2023-04-13T13:17:54.305Z,2.90
2023-04-13T13:21:16.020Z,1.70
2023-04-13T13:24:39.161Z,2.90
2023-04-13T13:28:14.158Z,2.95
2023-04-13T13:31:37.099Z,4.35
2023-04-13T13:34:59.011Z,3.88
2023-04-13T13:38:20.842Z,1.98
2023-04-13T13:41:42.177Z,3.55
2023-04-13T13:45:06.496Z,3.95
2023-04-13T13:48:28.377Z,3.45
2023-04-13T13:51:59.455Z,1.80
2023-04-13T13:55:24.017Z,1.45
2023-04-13T13:58:45.756Z,3.80
2023-04-13T14:02:09.727Z,4.97
2023-04-13T14:05:32.229Z,1.65
2023-04-13T14:08:55.830Z,2.35
2023-04-13T14:12:17.503Z,1.40
2023-04-13T14:15:38.851Z,2.28
2023-04-13T14:19:02.427Z,3.08
2023-04-13T14:22:24.628Z,4.47
2023-04-13T14:25:46.432Z,3.15
2023-04-13T14:29:09.020Z,2.33
2023-04-13T14:32:31.194Z,2.72
2023-04-13T14:35:54.453Z,2.83
2023-04-13T14:39:16.919Z,3.42
2023-04-13T14:42:38.341Z,2.55
2023-04-13T14:46:00.411Z,2.00
2023-04-13T14:49:22.080Z,1.70
2023-04-13T14:52:46.252Z,3.05
2023-04-13T14:56:08.469Z,8.02
2023-04-13T14:59:29.898Z,1.48
2023-04-13T15:02:52.488Z,2.65
2023-04-13T15:06:14.842Z,2.70
2023-04-13T15:09:40.258Z,3.13
2023-04-13T15:13:03.689Z,2.72
2023-04-13T15:16:25.618Z,5.60
2023-04-13T15:19:47.473Z,3.65
2023-04-13T15:23:09.530Z,2.10
2023-04-13T15:26:38.507Z,3.22
2023-04-13T15:30:03.142Z,1.60
2023-04-13T15:33:25.341Z,3.47
2023-04-13T15:36:47.187Z,3.63
2023-04-13T15:40:10.682Z,7.05
2023-04-13T15:43:33.726Z,2.20
2023-04-13T15:46:55.473Z,2.50
2023-04-13T15:50:18.435Z,2.25
2023-04-13T15:53:40.118Z,1.50
2023-04-13T15:57:02.452Z,3.83
2023-04-13T16:00:26.270Z,1.65
2023-04-13T16:03:48.263Z,4.30
2023-04-13T16:07:13.756Z,3.35
2023-04-13T16:10:37.193Z,2.58
2023-04-13T16:14:07.100Z,2.42
2023-04-13T16:17:34.549Z,1.48
2023-04-13T16:20:57.970Z,3.60
2023-04-13T16:24:21.095Z,2.10
2023-04-13T16:27:42.782Z,2.75
2023-04-13T16:31:04.803Z,1.83
2023-04-13T16:34:29.052Z,2.35
2023-04-13T16:37:50.541Z,2.78
2023-04-13T16:41:12.353Z,4.90
2023-04-13T16:44:34.539Z,3.45
2023-04-13T16:47:57.803Z,2.95
2023-04-13T16:51:20.994Z,3.63
2023-04-13T16:54:44.428Z,3.47
2023-04-13T16:58:07.457Z,3.58
2023-04-13T17:01:30.837Z,3.13
2023-04-13T17:04:54.607Z,3.22
2023-04-13T17:08:17.873Z,1.08
2023-04-13T17:11:39.253Z,4.63
2023-04-13T17:15:01.079Z,2.35
2023-04-13T17:18:25.863Z,2.28
2023-04-13T17:21:47.577Z,1.30
2023-04-13T17:25:11.349Z,2.35
2023-04-13T17:28:33.414Z,2.08
2023-04-13T17:31:54.949Z,3.28
2023-04-13T17:35:18.597Z,3.97
2023-04-13T17:38:40.643Z,5.25
2023-04-13T17:42:03.847Z,3.17
2023-04-13T17:45:25.329Z,4.88
2023-04-13T17:48:46.662Z,5.60
2023-04-13T17:52:09.603Z,9.10
2023-04-13T17:55:31.551Z,3.00
2023-04-13T17:58:54.948Z,6.05
2023-04-13T18:02:16.959Z,6.88
2023-04-13T18:05:44.330Z,8.52
2023-04-13T18:09:06.094Z,5.47
2023-04-13T18:12:27.518Z,7.95
2023-04-13T18:15:50.714Z,7.07
2023-04-13T18:19:12.286Z,3.78
2023-04-13T18:22:34.599Z,4.60
2023-04-13T18:25:56.346Z,2.63
2023-04-13T18:29:17.698Z,8.77
2023-04-13T18:32:40.958Z,13.73
2023-04-13T18:36:02.659Z,19.42
2023-04-13T18:39:24.653Z,20.42
2023-04-13T18:42:49.925Z,16.23
2023-04-13T18:46:12.516Z,7.32
2023-04-13T18:49:36.001Z,10.45
2023-04-13T18:52:58.046Z,15.02
2023-04-13T18:56:19.496Z,12.13
2023-04-13T18:59:40.912Z,10.25
2023-04-13T19:03:02.442Z,12.18
2023-04-13T19:06:26.362Z,9.70
2023-04-13T19:09:48.471Z,8.27
2023-04-13T19:13:15.541Z,9.85
2023-04-13T19:16:38.066Z,6.38
2023-04-13T19:19:59.551Z,9.23
2023-04-13T19:23:23.015Z,9.52
2023-04-13T19:26:44.595Z,9.77
2023-04-13T19:30:09.718Z,7.97
2023-04-13T19:33:33.461Z,9.32
2023-04-13T19:36:54.957Z,6.43
2023-04-13T19:40:18.033Z,5.85
2023-04-13T19:43:40.118Z,5.65
2023-04-13T19:47:01.928Z,8.38
2023-04-13T19:50:23.578Z,4.20
2023-04-13T19:53:44.963Z,4.90
2023-04-13T19:57:08.487Z,3.80
2023-04-13T20:00:30.103Z,6.33
2023-04-13T20:03:52.265Z,5.55
2023-04-13T20:07:14.568Z,3.83
2023-04-13T20:10:36.213Z,5.60
2023-04-13T20:13:59.186Z,7.40
2023-04-13T20:17:21.186Z,5.57
2023-04-13T20:20:43.347Z,4.28
2023-04-13T20:24:06.022Z,3.75
2023-04-13T20:27:27.764Z,5.50
2023-04-13T20:30:51.028Z,3.67
2023-04-13T20:34:13.612Z,5.93
2023-04-13T20:37:35.273Z,6.57
2023-04-13T20:40:57.043Z,9.07
2023-04-13T20:44:23.612Z,6.10
2023-04-13T20:47:50.392Z,5.47
2023-04-13T20:51:13.129Z,5.00
2023-04-13T20:54:34.739Z,5.77
2023-04-13T20:57:56.539Z,5.80
2023-04-13T21:01:18.311Z,4.80
2023-04-13T21:04:42.240Z,6.97
2023-04-13T21:08:03.985Z,7.10
2023-04-13T21:11:26.202Z,6.53
2023-04-13T21:14:47.806Z,7.23
2023-04-13T21:18:10.084Z,6.67
2023-04-13T21:21:33.027Z,11.23
2023-04-13T21:24:55.425Z,9.73
2023-04-13T21:28:17.850Z,9.90
2023-04-13T21:31:39.369Z,9.17
2023-04-13T21:35:01.162Z,7.83
2023-04-13T21:38:24.564Z,8.97
2023-04-13T21:41:46.363Z,11.00
2023-04-13T21:45:09.421Z,17.40
2023-04-13T21:48:31.101Z,12.10
2023-04-13T21:51:52.382Z,14.17
2023-04-13T21:55:18.897Z,9.73
2023-04-13T21:58:42.022Z,7.30
2023-04-13T22:02:04.110Z,7.33
2023-04-13T22:05:26.043Z,6.70
2023-04-13T22:08:47.377Z,8.57
2023-04-13T22:12:11.499Z,9.83
2023-04-13T22:15:33.715Z,9.13
2023-04-13T22:18:55.328Z,7.90
2023-04-13T22:22:16.773Z,4.97
2023-04-13T22:25:38.751Z,5.33
2023-04-13T22:29:02.363Z,3.50
2023-04-13T22:32:24.722Z,9.00
2023-04-13T22:35:46.448Z,2.97
2023-04-13T22:39:08.345Z,3.63
2023-04-13T22:42:30.069Z,3.37
2023-04-13T22:45:59.651Z,4.17
2023-04-13T22:49:21.938Z,3.87
2023-04-13T22:52:43.252Z,11.63
2023-04-13T22:56:05.600Z,4.70
2023-04-13T22:59:27.279Z,4.63
2023-04-13T23:02:55.825Z,4.00
2023-04-13T23:06:17.667Z,7.13
2023-04-13T23:09:39.349Z,6.40
2023-04-13T23:13:02.238Z,5.47
2023-04-13T23:16:23.631Z,6.43
2023-04-13T23:19:46.929Z,4.50
2023-04-13T23:23:08.304Z,5.00
2023-04-13T23:26:30.017Z,5.37
2023-04-13T23:29:51.705Z,4.83
2023-04-13T23:33:13.743Z,7.10
2023-04-13T23:36:37.377Z,6.93
2023-04-13T23:39:58.971Z,8.17
2023-04-13T23:43:21.355Z,8.03
2023-04-13T23:46:43.518Z,8.83
2023-04-13T23:50:06.060Z,5.00
2023-04-13T23:53:29.100Z,4.60
2023-04-13T23:56:50.660Z,8.13
